Terminal Aerodrome Forecast
Issued by NWS

Home | Current Version | Previous Version | Text Only | Print | Product List | Glossary Off
Versions: 1 2 3 4 5 6 7 8 9 10 11 12 13 14

637
FTUS43 KIWX 272158 AAA
TAFSBN
TAF AMD
KSBN 272158Z 2722/2818 35013KT P6SM SCT060
     FM280700 05005KT P6SM BKN110
     FM281300 04008KT P6SM SCT070
     FM281700 01013G21KT P6SM SKC=

USA.gov is the U.S. government's official web portal to all federal, state and local government web resources and services.